createdAt,value
2023-02-18T00:00:24.633Z,9.28
2023-02-18T00:15:27.049Z,8.82
2023-02-18T00:30:29.315Z,8.8
2023-02-18T00:45:31.766Z,8.83
2023-02-18T01:00:34.020Z,8.2
2023-02-18T01:15:36.290Z,7.76
2023-02-18T01:30:38.584Z,7.6
2023-02-18T01:45:40.874Z,7.65
2023-02-18T02:00:43.226Z,6.99
2023-02-18T02:15:45.480Z,6.89
2023-02-18T02:30:47.737Z,6.66
2023-02-18T02:45:50.087Z,6.85
2023-02-18T03:00:52.388Z,6.94
2023-02-18T03:15:54.711Z,7.47
2023-02-18T03:30:56.919Z,6.96
2023-02-18T03:46:02.610Z,7.09
2023-02-18T04:01:04.967Z,6.91
2023-02-18T04:16:07.670Z,7.08
2023-02-18T04:31:10.316Z,7.09
2023-02-18T04:46:12.660Z,6.77
2023-02-18T05:01:14.953Z,6.17
2023-02-18T05:16:17.242Z,6.2
2023-02-18T05:31:19.643Z,6.42
2023-02-18T05:46:22.282Z,5.85
2023-02-18T06:01:24.557Z,6.12
2023-02-18T06:16:26.810Z,6.11
2023-02-18T06:31:29.204Z,5.73
2023-02-18T06:46:31.600Z,6.29
2023-02-18T07:01:33.931Z,6.38
2023-02-18T07:16:36.237Z,6.38
2023-02-18T07:31:38.578Z,6.19
2023-02-18T07:46:41.101Z,5.83
2023-02-18T08:01:44.210Z,5.65
2023-02-18T08:16:47.402Z,5.66
2023-02-18T08:31:49.852Z,5.42
2023-02-18T08:46:52.290Z,5.47
2023-02-18T09:01:54.738Z,5.65
2023-02-18T09:16:56.998Z,5.15
2023-02-18T09:31:59.373Z,5.31
2023-02-18T09:47:01.949Z,5.48
2023-02-18T10:02:04.228Z,5.29
2023-02-18T10:17:06.450Z,5.15
2023-02-18T10:32:08.724Z,4.9
2023-02-18T10:47:11.042Z,5.17
2023-02-18T11:02:13.267Z,5
2023-02-18T11:17:15.497Z,4.92
2023-02-18T11:32:17.688Z,5.19
2023-02-18T11:47:20.052Z,4.97
2023-02-18T12:02:22.417Z,5.09
2023-02-18T12:17:24.653Z,5
2023-02-18T12:32:27.129Z,5.06
2023-02-18T12:47:29.496Z,5.05
2023-02-18T13:02:31.701Z,4.97
2023-02-18T13:17:33.883Z,5.19
2023-02-18T13:32:36.100Z,5.01
2023-02-18T13:47:38.409Z,5.15
2023-02-18T14:02:40.716Z,5.15
2023-02-18T14:17:42.972Z,4.93
2023-02-18T14:32:45.212Z,4.96
2023-02-18T14:47:47.676Z,5.15
2023-02-18T15:02:49.882Z,5.13
2023-02-18T15:17:52.094Z,4.52
2023-02-18T15:32:54.559Z,4.9
2023-02-18T15:47:56.872Z,5.17
2023-02-18T16:02:59.139Z,5.19
2023-02-18T16:18:01.416Z,5.36
2023-02-18T16:33:03.681Z,5.61
2023-02-18T16:48:05.904Z,5.71
2023-02-18T17:03:08.145Z,5.83
2023-02-18T17:18:10.441Z,5.86
2023-02-18T17:33:12.775Z,6.21
2023-02-18T17:48:15.079Z,7.03
2023-02-18T18:03:17.308Z,8.17
2023-02-18T18:18:20.080Z,8.14
2023-02-18T18:33:22.545Z,8.94
2023-02-18T18:48:25.132Z,9.32
2023-02-18T19:03:27.557Z,9.61
2023-02-18T19:18:29.800Z,10.06
2023-02-18T19:33:32.246Z,10.63
2023-02-18T19:48:34.543Z,11.26
2023-02-18T20:03:36.844Z,11.99
2023-02-18T20:18:39.146Z,12.4
2023-02-18T20:33:41.395Z,12.65
2023-02-18T20:48:43.798Z,12.88
2023-02-18T21:03:46.086Z,13.25
2023-02-18T21:18:48.360Z,13.24
2023-02-18T21:33:50.637Z,12.87
2023-02-18T21:48:52.972Z,12.38
2023-02-18T22:03:55.317Z,13.04
2023-02-18T22:18:57.712Z,13.23
2023-02-18T22:34:00.157Z,10.83
2023-02-18T22:49:02.509Z,10.81
2023-02-18T23:04:04.853Z,9.62
2023-02-18T23:19:07.149Z,10.66
2023-02-18T23:34:09.502Z,10.52
2023-02-18T23:49:11.833Z,10.31
